Donnelly, ID (83615)

8:56 AM MST on December 26, 2014 (GMT -0700)
TMA Office | Change Station
CLOSE
Current Station
Personal Weather Station
Location: Donnelly, ID
Elevation: 4875 ft
Nearby Weather Stations

Elev 4875 ft 44.67 °N, 116.12 °W | Updated 11 minutes ago

Mostly Cloudy
Mostly Cloudy
18.0 °F
Feels Like 18 °F
N
0.7
Wind Variable Wind from NW
Gusts 2.2 mph

Today
High -- | Low -- °F
--% Chance of Precip.
Yesterday
High -- | Low -- °F
Precip. -- in
8:20 AM 5:09 PM
Waxing Crescent, 27% visible
Pressure 30.20 in
Visibility 8.0 miles
Clouds Mostly Cloudy 5000 ft
Overcast 6000 ft
Windchill 18 °F
Dew Point 16 °F
Humidity 92%
Rainfall 0.00 in
Snow Depth Not available.
UV 0 out of 12
Pollen .10 out of 12
Air Quality Not available.
Flu Activity Not available.
METAR KMYL 261551Z AUTO 05003KT 8SM -SN BKN050 OVC060 M08/M09 A3005 RMK AO2 SNB07E17B42 SLP225 P0000 T10831094

More Conditions Fewer Conditions

Pressure 30.20 in
Visibility 8.0 miles
Clouds Mostly Cloudy 5000 ft
Overcast 6000 ft
Windchill 18 °F
Dew Point 16 °F
Humidity 92%
Rainfall 0.00 in
Snow Depth Not available.
UV 0 out of 12
Pollen .10 out of 12
Air Quality Not available.
Flu Activity Not available.
METAR KMYL 261551Z AUTO 05003KT 8SM -SN BKN050 OVC060 M08/M09 A3005 RMK AO2 SNB07E17B42 SLP225 P0000 T10831094

More Conditions Fewer Conditions

10-Day Weather Forecast

Almanac

Astronomy

Dec. 26, 2014 Rise Set
Actual Time
Civil Twilight
Nautical Twilight
Astronomical Twilight
Moon
Length of Visible Light
Length of Day
Tomorrow will be .
, % of the Moon is Illuminated

Today's Extremes

State Highs State Lows

Community

WunderPhotos

Upload Photos

1,780,620 photos uploaded!

WunderBlogs® & News

Nearby

Air Quality

  Air Quality AQ Index Pollutant
Not available.

Snow Depth

Station Depth Elevation

Earthquake Activity

City Distance Mag. Time & Date
Minimum magnitude displayed is 2.5.

Coastal Water Temperatures

Place Temperature

Nearby Weather Stations